createdAt,value
2023-04-09T00:01:37.791Z,3.40
2023-04-09T00:04:06.191Z,3.30
2023-04-09T00:06:34.254Z,3.30
2023-04-09T00:09:02.335Z,3.20
2023-04-09T00:11:30.481Z,3.10
2023-04-09T00:14:00.322Z,3.10
2023-04-09T00:16:28.440Z,3.00
2023-04-09T00:18:56.739Z,2.90
2023-04-09T00:21:24.750Z,2.90
2023-04-09T00:23:52.788Z,2.90
2023-04-09T00:26:21.349Z,2.80
2023-04-09T00:28:49.666Z,2.80
2023-04-09T00:31:20.739Z,2.70
2023-04-09T00:33:49.102Z,2.70
2023-04-09T00:36:17.172Z,2.70
2023-04-09T00:38:45.416Z,2.60
2023-04-09T00:41:13.475Z,2.60
2023-04-09T00:43:41.476Z,2.60
2023-04-09T00:46:09.634Z,2.50
2023-04-09T00:48:39.194Z,2.50
2023-04-09T00:51:07.173Z,2.40
2023-04-09T00:53:35.321Z,2.40
2023-04-09T00:56:04.461Z,2.40
2023-04-09T00:58:32.706Z,2.40
2023-04-09T01:01:00.796Z,2.30
2023-04-09T01:03:29.235Z,2.30
2023-04-09T01:06:08.549Z,2.20
2023-04-09T01:08:50.429Z,2.20
2023-04-09T01:11:27.911Z,2.20
2023-04-09T01:14:05.854Z,2.10
2023-04-09T01:16:37.777Z,2.10
2023-04-09T01:19:16.383Z,2.00
2023-04-09T01:21:46.566Z,2.00
2023-04-09T01:24:27.447Z,2.00
2023-04-09T01:27:01.563Z,1.90
2023-04-09T01:29:34.708Z,1.90
2023-04-09T01:32:04.084Z,1.90
2023-04-09T01:34:32.612Z,1.80
2023-04-09T01:37:04.274Z,1.80
2023-04-09T01:39:33.315Z,1.80
2023-04-09T01:42:04.045Z,1.70
2023-04-09T01:44:34.369Z,1.70
2023-04-09T01:47:03.113Z,1.70
2023-04-09T01:49:32.150Z,1.70
2023-04-09T01:52:00.741Z,1.70
2023-04-09T01:54:28.785Z,1.60
2023-04-09T01:56:58.993Z,1.60
2023-04-09T01:59:27.006Z,1.50
2023-04-09T02:02:00.881Z,1.50
2023-04-09T02:04:34.637Z,1.50
2023-04-09T02:07:07.913Z,1.40
2023-04-09T02:09:38.664Z,1.40
2023-04-09T02:12:11.681Z,1.40
2023-04-09T02:14:41.369Z,1.40
2023-04-09T02:17:11.082Z,1.30
2023-04-09T02:19:44.656Z,1.30
2023-04-09T02:22:13.550Z,1.30
2023-04-09T02:24:41.728Z,1.20
2023-04-09T02:27:10.090Z,1.20
2023-04-09T02:29:38.294Z,1.20
2023-04-09T02:32:07.028Z,1.20
2023-04-09T02:34:36.378Z,1.10
2023-04-09T02:37:04.381Z,1.10
2023-04-09T02:39:32.317Z,1.10
2023-04-09T02:42:00.998Z,1.00
2023-04-09T02:44:29.047Z,1.00
2023-04-09T02:46:57.189Z,0.90
2023-04-09T02:49:25.241Z,0.90
2023-04-09T02:51:54.606Z,0.90
2023-04-09T02:54:22.562Z,0.90
2023-04-09T02:56:50.580Z,0.90
2023-04-09T02:59:18.569Z,0.80
2023-04-09T03:01:47.580Z,0.80
2023-04-09T03:04:15.846Z,0.80
2023-04-09T03:06:43.890Z,0.80
2023-04-09T03:09:13.229Z,0.80
2023-04-09T03:11:41.190Z,0.80
2023-04-09T03:14:09.289Z,0.70
2023-04-09T03:16:37.263Z,0.70
2023-04-09T03:19:05.255Z,0.70
2023-04-09T03:21:33.241Z,0.70
2023-04-09T03:24:02.162Z,0.70
2023-04-09T03:26:36.108Z,0.60
2023-04-09T03:29:04.319Z,0.60
2023-04-09T03:31:32.327Z,0.60
2023-04-09T03:34:00.591Z,0.60
2023-04-09T03:36:28.986Z,0.60
2023-04-09T03:38:56.925Z,0.60
2023-04-09T03:41:24.961Z,0.60
2023-04-09T03:43:54.290Z,0.60
2023-04-09T03:46:22.316Z,0.50
2023-04-09T03:48:50.584Z,0.50
2023-04-09T03:51:19.401Z,0.50
2023-04-09T03:53:47.331Z,0.50
2023-04-09T03:56:15.401Z,0.50
2023-04-09T03:58:43.334Z,0.50
2023-04-09T04:01:12.802Z,0.50
2023-04-09T04:03:41.042Z,0.50
2023-04-09T04:06:09.139Z,0.60
2023-04-09T04:08:37.093Z,0.60
2023-04-09T04:11:05.851Z,0.60
2023-04-09T04:13:33.878Z,0.70
2023-04-09T04:16:01.948Z,0.70
2023-04-09T04:18:31.293Z,0.80
2023-04-09T04:20:59.268Z,0.80
2023-04-09T04:23:27.416Z,0.90
2023-04-09T04:25:56.989Z,0.90
2023-04-09T04:28:25.420Z,1.00
2023-04-09T04:30:53.358Z,1.00
2023-04-09T04:33:21.300Z,1.10
2023-04-09T04:35:50.679Z,1.10
2023-04-09T04:38:18.661Z,1.20
2023-04-09T04:40:46.655Z,1.20
2023-04-09T04:43:14.595Z,1.30
2023-04-09T04:45:42.557Z,1.40
2023-04-09T04:48:10.492Z,1.40
2023-04-09T04:50:38.422Z,1.50
2023-04-09T04:53:07.787Z,1.70
2023-04-09T04:55:37.312Z,1.80
2023-04-09T04:58:05.287Z,1.80
2023-04-09T05:00:33.444Z,1.90
2023-04-09T05:03:01.494Z,2.00
2023-04-09T05:05:29.647Z,2.20
2023-04-09T05:07:57.580Z,2.20
2023-04-09T05:10:26.931Z,2.30
2023-04-09T05:12:54.875Z,2.30
2023-04-09T05:15:22.830Z,2.40
2023-04-09T05:17:51.195Z,2.40
2023-04-09T05:20:19.288Z,2.40
2023-04-09T05:22:47.222Z,2.50
2023-04-09T05:25:16.580Z,2.50
2023-04-09T05:27:46.019Z,2.60
2023-04-09T05:30:14.441Z,2.60
2023-04-09T05:32:42.416Z,2.60
2023-04-09T05:35:10.892Z,2.60
2023-04-09T05:37:39.109Z,2.60
2023-04-09T05:40:08.132Z,2.70
2023-04-09T05:42:36.121Z,2.70
2023-04-09T05:45:06.169Z,2.70
2023-04-09T05:47:34.190Z,2.70
2023-04-09T05:50:02.546Z,2.70
2023-04-09T05:52:30.525Z,2.80
2023-04-09T05:55:00.748Z,2.70
2023-04-09T05:57:30.475Z,2.80
2023-04-09T05:59:59.062Z,2.80
2023-04-09T06:02:29.471Z,2.80
2023-04-09T06:04:59.928Z,2.90
2023-04-09T06:07:27.982Z,2.90
2023-04-09T06:09:56.766Z,3.00
2023-04-09T06:12:27.042Z,3.00
2023-04-09T06:14:55.002Z,3.10
2023-04-09T06:17:25.007Z,3.20
2023-04-09T06:19:54.945Z,3.20
2023-04-09T06:22:23.063Z,3.20
2023-04-09T06:24:51.159Z,3.20
2023-04-09T06:27:19.182Z,3.20
2023-04-09T06:29:47.172Z,3.20
2023-04-09T06:32:15.649Z,3.30
2023-04-09T06:34:43.643Z,3.30
2023-04-09T06:37:13.151Z,3.30
2023-04-09T06:39:47.606Z,3.30
2023-04-09T06:42:27.136Z,3.40
2023-04-09T06:44:55.181Z,3.50
2023-04-09T06:47:23.230Z,3.50
2023-04-09T06:49:51.531Z,3.50
2023-04-09T06:52:20.943Z,3.50
2023-04-09T06:54:49.019Z,3.60
2023-04-09T06:57:17.036Z,3.70
2023-04-09T06:59:45.044Z,3.80
2023-04-09T07:02:13.264Z,3.80
2023-04-09T07:04:41.423Z,3.90
2023-04-09T07:07:09.488Z,4.00
2023-04-09T07:09:38.967Z,4.10
2023-04-09T07:12:07.596Z,4.10
2023-04-09T07:14:35.597Z,4.00
2023-04-09T07:17:03.657Z,4.10
2023-04-09T07:19:31.958Z,4.10
2023-04-09T07:22:00.000Z,4.30
2023-04-09T07:24:28.030Z,4.40
2023-04-09T07:26:57.485Z,4.50
2023-04-09T07:29:25.591Z,4.50
2023-04-09T07:31:53.740Z,4.60
2023-04-09T07:34:21.963Z,4.70
2023-04-09T07:36:50.190Z,4.80
2023-04-09T07:39:18.330Z,4.90
2023-04-09T07:41:47.343Z,5.00
2023-04-09T07:44:17.239Z,5.00
2023-04-09T07:46:45.455Z,5.10
2023-04-09T07:49:13.453Z,5.10
2023-04-09T07:51:41.553Z,5.30
2023-04-09T07:54:09.614Z,5.50
2023-04-09T07:56:37.628Z,5.50
2023-04-09T07:59:05.768Z,5.30
2023-04-09T08:01:35.156Z,5.30
2023-04-09T08:04:04.024Z,5.30
2023-04-09T08:06:32.240Z,5.30
2023-04-09T08:09:00.385Z,5.40
2023-04-09T08:11:28.430Z,5.50
2023-04-09T08:13:57.122Z,5.70
2023-04-09T08:16:25.400Z,5.80
2023-04-09T08:18:55.144Z,5.80
2023-04-09T08:21:23.354Z,5.80
2023-04-09T08:23:51.711Z,5.80
2023-04-09T08:26:19.647Z,5.90
2023-04-09T08:28:47.622Z,6.00
2023-04-09T08:31:15.714Z,6.10
2023-04-09T08:33:43.969Z,6.20
2023-04-09T08:36:13.371Z,6.50
2023-04-09T08:38:41.995Z,6.80
2023-04-09T08:41:18.042Z,7.20
2023-04-09T08:43:57.677Z,7.60
2023-04-09T08:46:27.455Z,8.10
2023-04-09T08:48:56.188Z,8.80
2023-04-09T08:51:26.765Z,9.40
2023-04-09T08:53:58.334Z,9.90
2023-04-09T08:56:27.202Z,10.00
2023-04-09T08:58:57.704Z,10.60
2023-04-09T09:01:27.558Z,11.10
2023-04-09T09:03:58.416Z,11.60
2023-04-09T09:06:30.136Z,12.00
2023-04-09T09:09:06.113Z,12.20
2023-04-09T09:11:34.728Z,12.50
2023-04-09T09:14:04.552Z,12.60
2023-04-09T09:16:34.679Z,12.90
2023-04-09T09:19:03.666Z,13.20
2023-04-09T09:21:33.410Z,13.40
2023-04-09T09:24:01.832Z,13.70
2023-04-09T09:26:32.027Z,14.10
2023-04-09T09:29:05.734Z,14.40
2023-04-09T09:31:47.399Z,14.60
2023-04-09T09:34:15.778Z,14.60
2023-04-09T09:36:46.116Z,14.40
2023-04-09T09:39:17.289Z,14.20
2023-04-09T09:41:47.229Z,14.20
2023-04-09T09:44:32.791Z,14.40
2023-04-09T09:47:01.686Z,14.90
2023-04-09T09:49:29.633Z,14.90
2023-04-09T09:52:03.005Z,15.10
2023-04-09T09:54:36.297Z,15.40
2023-04-09T09:57:08.629Z,16.00
2023-04-09T09:59:41.782Z,16.30
2023-04-09T10:02:19.962Z,16.20
2023-04-09T10:04:51.528Z,16.00
2023-04-09T10:07:23.987Z,16.10
2023-04-09T10:09:55.364Z,16.00
2023-04-09T10:12:24.810Z,15.90
2023-04-09T10:14:54.175Z,16.40
2023-04-09T10:17:22.807Z,16.40
2023-04-09T10:20:00.375Z,16.30
2023-04-09T10:22:34.407Z,16.90
2023-04-09T10:25:03.560Z,17.00
2023-04-09T10:27:31.656Z,17.50
2023-04-09T10:30:01.140Z,17.70
2023-04-09T10:32:36.149Z,17.30
2023-04-09T10:35:05.392Z,17.00
2023-04-09T10:37:37.077Z,16.10
2023-04-09T10:40:05.647Z,16.20
2023-04-09T10:42:40.767Z,16.20
2023-04-09T10:45:10.517Z,15.80
2023-04-09T10:47:40.105Z,15.80
2023-04-09T10:50:18.911Z,16.10
2023-04-09T10:52:52.582Z,16.90
2023-04-09T10:55:38.001Z,17.30
2023-04-09T10:58:07.176Z,17.60
2023-04-09T11:00:40.301Z,17.70
2023-04-09T11:03:21.910Z,17.20
2023-04-09T11:05:53.588Z,16.10
2023-04-09T11:08:23.236Z,16.10
2023-04-09T11:10:53.437Z,16.60
2023-04-09T11:13:21.962Z,17.10
2023-04-09T11:15:50.099Z,16.70
2023-04-09T11:18:22.045Z,17.30
2023-04-09T11:20:50.357Z,16.80
2023-04-09T11:23:19.538Z,15.80
2023-04-09T11:25:52.329Z,15.60
2023-04-09T11:28:21.286Z,15.30
2023-04-09T11:30:51.851Z,15.00
2023-04-09T11:33:20.492Z,14.90
2023-04-09T11:35:49.389Z,14.60
2023-04-09T11:38:17.546Z,14.70
2023-04-09T11:40:49.071Z,14.50
2023-04-09T11:43:20.994Z,14.70
2023-04-09T11:45:50.175Z,15.00
2023-04-09T11:48:19.244Z,15.10
2023-04-09T11:50:47.849Z,15.30
2023-04-09T11:53:20.072Z,15.50
2023-04-09T11:55:50.733Z,15.60
2023-04-09T11:58:23.072Z,15.30
2023-04-09T12:00:54.280Z,15.20
2023-04-09T12:03:29.482Z,14.80
2023-04-09T12:05:58.649Z,14.30
2023-04-09T12:08:28.502Z,14.10
2023-04-09T12:10:56.662Z,14.20
2023-04-09T12:13:34.307Z,14.20
2023-04-09T12:16:03.457Z,14.00
2023-04-09T12:18:31.662Z,14.10
2023-04-09T12:21:01.347Z,14.20
2023-04-09T12:23:31.436Z,14.30
2023-04-09T12:26:01.240Z,14.50
2023-04-09T12:28:30.877Z,14.50
2023-04-09T12:30:59.736Z,14.30
2023-04-09T12:33:27.842Z,14.20
2023-04-09T12:35:56.080Z,14.10
2023-04-09T12:38:24.200Z,14.00
2023-04-09T12:40:52.194Z,13.90
2023-04-09T12:43:20.674Z,13.90
2023-04-09T12:45:52.840Z,13.90
2023-04-09T12:48:21.001Z,13.90
2023-04-09T12:50:49.136Z,13.80
2023-04-09T12:53:17.372Z,13.80
2023-04-09T12:55:45.546Z,13.80
2023-04-09T12:58:13.557Z,13.70
2023-04-09T13:00:41.969Z,13.70
2023-04-09T13:03:11.917Z,13.70
2023-04-09T13:05:40.192Z,13.80
2023-04-09T13:08:08.278Z,13.60
2023-04-09T13:10:36.486Z,13.40
2023-04-09T13:13:04.509Z,13.50
2023-04-09T13:15:32.556Z,13.40
2023-04-09T13:18:00.563Z,13.50
2023-04-09T13:20:30.538Z,13.70
2023-04-09T13:22:58.557Z,13.90
2023-04-09T13:25:26.632Z,14.10
2023-04-09T13:27:54.790Z,14.30
2023-04-09T13:30:23.140Z,14.50
2023-04-09T13:32:51.243Z,14.60
2023-04-09T13:35:19.806Z,14.70
2023-04-09T13:37:49.247Z,14.90
2023-04-09T13:40:26.016Z,14.90
2023-04-09T13:42:55.379Z,14.80
2023-04-09T13:45:24.269Z,14.50
2023-04-09T13:47:52.510Z,14.50
2023-04-09T13:50:21.797Z,14.40
2023-04-09T13:52:51.336Z,14.20
2023-04-09T13:55:19.476Z,14.00
2023-04-09T13:57:47.543Z,13.90
2023-04-09T14:00:19.834Z,13.90
2023-04-09T14:02:48.040Z,14.00
2023-04-09T14:05:16.495Z,14.20
2023-04-09T14:07:44.403Z,14.60
2023-04-09T14:10:13.935Z,15.20
2023-04-09T14:12:41.992Z,15.90
2023-04-09T14:15:11.024Z,16.10
2023-04-09T14:17:39.478Z,16.00
2023-04-09T14:20:09.081Z,15.60
2023-04-09T14:22:37.618Z,14.80
2023-04-09T14:25:06.576Z,14.70
2023-04-09T14:27:36.432Z,14.50
2023-04-09T14:30:04.907Z,14.50
2023-04-09T14:32:33.057Z,14.50
2023-04-09T14:35:01.997Z,14.50
2023-04-09T14:37:30.125Z,14.40
2023-04-09T14:39:58.237Z,14.30
2023-04-09T14:42:26.355Z,14.10
2023-04-09T14:44:56.071Z,14.30
2023-04-09T14:47:24.142Z,14.50
2023-04-09T14:49:52.262Z,14.60
2023-04-09T14:52:20.489Z,14.70
2023-04-09T14:54:48.623Z,14.40
2023-04-09T14:57:16.908Z,14.40
2023-04-09T14:59:44.924Z,14.10
2023-04-09T15:02:14.535Z,14.10
2023-04-09T15:04:42.754Z,14.10
2023-04-09T15:07:11.046Z,14.10
2023-04-09T15:09:40.230Z,13.80
2023-04-09T15:12:09.529Z,13.60
2023-04-09T15:14:37.727Z,13.70
2023-04-09T15:17:05.832Z,13.70
2023-04-09T15:19:35.337Z,13.80
2023-04-09T15:22:03.316Z,13.80
2023-04-09T15:24:31.369Z,13.80
2023-04-09T15:26:59.379Z,13.80
2023-04-09T15:29:27.850Z,13.80
2023-04-09T15:31:55.939Z,13.70
2023-04-09T15:34:25.803Z,13.60
2023-04-09T15:36:55.365Z,13.70
2023-04-09T15:39:24.479Z,13.60
2023-04-09T15:41:52.469Z,13.60
2023-04-09T15:44:20.626Z,13.70
2023-04-09T15:46:48.940Z,13.50
2023-04-09T15:49:17.131Z,13.50
2023-04-09T15:51:45.221Z,13.50
2023-04-09T15:54:15.529Z,13.30
2023-04-09T15:56:43.513Z,13.40
2023-04-09T15:59:11.587Z,13.40
2023-04-09T16:01:39.731Z,13.20
2023-04-09T16:04:09.012Z,13.10
2023-04-09T16:06:38.575Z,13.10
2023-04-09T16:09:06.654Z,13.20
2023-04-09T16:11:37.486Z,13.10
2023-04-09T16:14:05.808Z,13.10
2023-04-09T16:16:33.930Z,13.10
2023-04-09T16:19:02.159Z,13.20
2023-04-09T16:21:30.297Z,13.20
2023-04-09T16:23:58.349Z,13.20
2023-04-09T16:26:26.411Z,13.20
2023-04-09T16:28:56.037Z,13.10
2023-04-09T16:31:24.215Z,13.10
2023-04-09T16:33:52.384Z,13.10
2023-04-09T16:36:20.463Z,12.90
2023-04-09T16:38:49.261Z,12.90
2023-04-09T16:41:17.451Z,12.80
2023-04-09T16:43:49.911Z,12.80
2023-04-09T16:46:19.354Z,12.80
2023-04-09T16:48:47.348Z,12.90
2023-04-09T16:51:15.455Z,12.80
2023-04-09T16:53:43.613Z,12.90
2023-04-09T16:56:11.850Z,12.80
2023-04-09T16:58:39.858Z,12.80
2023-04-09T17:01:07.912Z,12.90
2023-04-09T17:03:37.604Z,12.90
2023-04-09T17:06:06.051Z,12.90
2023-04-09T17:08:35.066Z,12.90
2023-04-09T17:11:03.253Z,12.90
2023-04-09T17:13:32.192Z,12.80
2023-04-09T17:16:00.594Z,12.80
2023-04-09T17:18:28.732Z,12.80
2023-04-09T17:20:59.876Z,12.70
2023-04-09T17:23:27.998Z,12.70
2023-04-09T17:25:56.108Z,12.70
2023-04-09T17:28:24.156Z,12.70
2023-04-09T17:30:52.288Z,12.70
2023-04-09T17:33:20.356Z,12.60
2023-04-09T17:35:48.505Z,12.50
2023-04-09T17:38:22.067Z,12.50
2023-04-09T17:40:50.684Z,12.40
2023-04-09T17:43:18.698Z,12.40
2023-04-09T17:45:46.739Z,12.30
2023-04-09T17:48:15.788Z,12.20
2023-04-09T17:50:43.849Z,12.20
2023-04-09T17:53:11.894Z,12.10
2023-04-09T17:55:47.592Z,12.00
2023-04-09T17:58:15.578Z,11.90
2023-04-09T18:00:44.276Z,11.90
2023-04-09T18:03:13.563Z,11.80
2023-04-09T18:05:43.323Z,11.70
2023-04-09T18:08:11.469Z,11.60
2023-04-09T18:10:40.927Z,11.60
2023-04-09T18:13:10.083Z,11.40
2023-04-09T18:15:38.508Z,11.40
2023-04-09T18:18:06.611Z,11.30
2023-04-09T18:20:34.719Z,11.20
2023-04-09T18:23:02.707Z,11.10
2023-04-09T18:25:31.033Z,11.00
2023-04-09T18:28:01.039Z,11.00
2023-04-09T18:30:29.065Z,10.90
2023-04-09T18:32:57.218Z,10.80
2023-04-09T18:35:27.485Z,10.70
2023-04-09T18:37:55.456Z,10.60
2023-04-09T18:40:23.451Z,10.50
2023-04-09T18:42:52.804Z,10.40
2023-04-09T18:45:22.517Z,10.30
2023-04-09T18:47:53.285Z,10.10
2023-04-09T18:50:21.369Z,10.00
2023-04-09T18:52:49.349Z,9.90
2023-04-09T18:55:18.363Z,9.80
2023-04-09T18:57:47.226Z,9.70
2023-04-09T19:00:16.319Z,9.60
2023-04-09T19:02:46.197Z,9.50
2023-04-09T19:05:14.468Z,9.40
2023-04-09T19:07:43.496Z,9.30
2023-04-09T19:10:11.944Z,9.10
2023-04-09T19:12:46.709Z,9.00
2023-04-09T19:15:14.829Z,8.90
2023-04-09T19:17:43.086Z,8.80
2023-04-09T19:20:13.582Z,8.70
2023-04-09T19:22:41.613Z,8.60
2023-04-09T19:25:10.424Z,8.50
2023-04-09T19:27:38.620Z,8.40
2023-04-09T19:30:07.986Z,8.30
2023-04-09T19:32:36.088Z,8.20
2023-04-09T19:35:05.513Z,8.20
2023-04-09T19:37:35.720Z,8.10
2023-04-09T19:40:04.692Z,8.00
2023-04-09T19:42:33.240Z,7.90
2023-04-09T19:45:01.351Z,7.80
2023-04-09T19:47:29.377Z,7.80
2023-04-09T19:49:57.377Z,7.70
2023-04-09T19:52:26.011Z,7.60
2023-04-09T19:54:58.525Z,7.50
2023-04-09T19:57:27.234Z,7.50
2023-04-09T19:59:55.581Z,7.40
2023-04-09T20:02:23.955Z,7.30
2023-04-09T20:04:52.319Z,7.20
2023-04-09T20:07:20.500Z,7.10
2023-04-09T20:09:48.813Z,7.10
2023-04-09T20:12:20.882Z,7.00
2023-04-09T20:14:49.980Z,6.90
2023-04-09T20:17:19.804Z,6.90
2023-04-09T20:19:47.806Z,6.80
2023-04-09T20:22:16.186Z,6.70
2023-04-09T20:24:44.145Z,6.60
2023-04-09T20:27:12.113Z,6.60
2023-04-09T20:29:41.548Z,6.50
2023-04-09T20:32:09.611Z,6.50
2023-04-09T20:34:37.673Z,6.40
2023-04-09T20:37:06.685Z,6.30
2023-04-09T20:39:34.683Z,6.30
2023-04-09T20:42:02.610Z,6.20
2023-04-09T20:44:30.614Z,6.10
2023-04-09T20:46:59.918Z,6.10
2023-04-09T20:49:27.903Z,6.00
2023-04-09T20:51:55.895Z,6.00
2023-04-09T20:54:23.916Z,5.90
2023-04-09T20:56:52.243Z,5.90
2023-04-09T20:59:20.682Z,5.80
2023-04-09T21:01:48.917Z,5.70
2023-04-09T21:04:18.408Z,5.70
2023-04-09T21:06:47.663Z,5.60
2023-04-09T21:09:15.950Z,5.60
2023-04-09T21:11:43.923Z,5.50
2023-04-09T21:14:13.496Z,5.50
2023-04-09T21:16:41.579Z,5.40
2023-04-09T21:19:09.659Z,5.40
2023-04-09T21:21:39.124Z,5.30
2023-04-09T21:24:07.196Z,5.30
2023-04-09T21:26:49.493Z,5.20
2023-04-09T21:29:20.345Z,5.20
2023-04-09T21:31:49.068Z,5.10
2023-04-09T21:34:17.573Z,5.00
2023-04-09T21:36:47.208Z,5.00
2023-04-09T21:39:15.414Z,4.90
2023-04-09T21:41:43.443Z,4.90
2023-04-09T21:44:11.427Z,4.80
2023-04-09T21:46:40.549Z,4.80
2023-04-09T21:49:08.933Z,4.70
2023-04-09T21:54:07.986Z,4.60
2023-04-09T21:56:37.097Z,4.60
2023-04-09T21:59:05.759Z,4.50
2023-04-09T22:01:34.907Z,4.50
2023-04-09T22:04:03.821Z,4.40
2023-04-09T22:06:32.194Z,4.40
2023-04-09T22:09:00.704Z,4.30
2023-04-09T22:11:30.482Z,4.30
2023-04-09T22:13:58.896Z,4.20
2023-04-09T22:16:27.432Z,4.20
2023-04-09T22:18:56.187Z,4.20
2023-04-09T22:21:24.623Z,4.10
2023-04-09T22:23:52.653Z,4.10
2023-04-09T22:26:21.532Z,4.10
2023-04-09T22:28:51.500Z,4.10
2023-04-09T22:31:19.879Z,4.00
2023-04-09T22:33:48.060Z,4.00
2023-04-09T22:36:16.309Z,4.00
2023-04-09T22:38:44.343Z,3.90
2023-04-09T22:41:12.329Z,3.90
2023-04-09T22:43:40.377Z,3.80
2023-04-09T22:46:09.892Z,3.80
2023-04-09T22:48:44.063Z,3.70
2023-04-09T22:51:13.617Z,3.70
2023-04-09T22:53:41.692Z,3.70
2023-04-09T22:56:10.156Z,3.60
2023-04-09T22:58:38.774Z,3.60
2023-04-09T23:01:07.592Z,3.50
2023-04-09T23:03:37.141Z,3.50
2023-04-09T23:06:05.452Z,3.40
2023-04-09T23:08:33.468Z,3.40
2023-04-09T23:11:01.407Z,3.30
2023-04-09T23:13:29.403Z,3.30
2023-04-09T23:15:57.410Z,3.20
2023-04-09T23:18:25.434Z,3.20
2023-04-09T23:20:54.773Z,3.10
2023-04-09T23:23:22.842Z,3.10
2023-04-09T23:25:50.874Z,3.10
2023-04-09T23:28:18.845Z,3.10
2023-04-09T23:30:46.836Z,3.10
2023-04-09T23:33:14.912Z,3.00
2023-04-09T23:35:42.993Z,3.00
2023-04-09T23:38:12.410Z,3.00
2023-04-09T23:40:40.606Z,3.00
2023-04-09T23:43:08.838Z,3.00
2023-04-09T23:45:36.858Z,2.90
2023-04-09T23:48:06.212Z,2.90
2023-04-09T23:50:34.273Z,2.90
2023-04-09T23:53:03.740Z,2.80
2023-04-09T23:55:34.012Z,2.80
2023-04-09T23:58:02.084Z,2.70
